createdAt,value
2023-05-14T00:00:43.277Z,100163.03
2023-05-14T00:03:11.967Z,100152.28
2023-05-14T00:05:40.356Z,100151.56
2023-05-14T00:08:10.273Z,100163.94
2023-05-14T00:10:39.669Z,100163.72
2023-05-14T00:13:07.520Z,100169.78
2023-05-14T00:15:37.230Z,100167.28
2023-05-14T00:18:06.054Z,100178.31
2023-05-14T00:20:34.149Z,100173.63
2023-05-14T00:23:01.933Z,100176.84
2023-05-14T00:25:31.180Z,100175.09
2023-05-14T00:27:59.061Z,100170.75
2023-05-14T00:30:27.161Z,100167.09
2023-05-14T00:32:55.026Z,100170.75
2023-05-14T00:35:22.833Z,100161.19
2023-05-14T00:37:51.258Z,100166.91
2023-05-14T00:40:19.480Z,100165.56
2023-05-14T00:42:48.688Z,100156.69
2023-05-14T00:45:16.710Z,100152.91
2023-05-14T00:47:44.986Z,100153.84
2023-05-14T00:50:13.252Z,100148.66
2023-05-14T00:52:41.748Z,100148.28
2023-05-14T00:55:11.894Z,100148.03
2023-05-14T00:57:40.087Z,100154.97
2023-05-14T01:00:10.722Z,100153.00
2023-05-14T01:02:41.317Z,100140.28
2023-05-14T01:05:10.521Z,100140.09
2023-05-14T01:07:47.662Z,100147.53
2023-05-14T01:10:18.785Z,100141.44
2023-05-14T01:12:49.197Z,100125.44
2023-05-14T01:15:21.107Z,100126.28
2023-05-14T01:17:51.754Z,100127.81
2023-05-14T01:20:20.127Z,100120.22
2023-05-14T01:22:50.659Z,100130.19
2023-05-14T01:25:19.196Z,100127.44
2023-05-14T01:27:51.264Z,100138.09
2023-05-14T01:30:22.994Z,100142.63
2023-05-14T01:32:54.837Z,100142.69
2023-05-14T01:35:24.593Z,100129.72
2023-05-14T01:37:54.832Z,100129.41
2023-05-14T01:40:23.865Z,100133.69
2023-05-14T01:42:52.421Z,100143.94
2023-05-14T01:45:21.744Z,100145.09
2023-05-14T01:47:50.089Z,100141.88
2023-05-14T01:50:18.791Z,100147.31
2023-05-14T01:52:48.601Z,100145.22
2023-05-14T01:55:18.555Z,100146.13
2023-05-14T01:57:48.969Z,100143.44
2023-05-14T02:00:17.709Z,100142.03
2023-05-14T02:02:46.655Z,100136.72
2023-05-14T02:05:15.576Z,100140.69
2023-05-14T02:07:43.576Z,100139.53
2023-05-14T02:10:11.946Z,100142.91
2023-05-14T02:12:41.721Z,100134.47
2023-05-14T02:15:11.551Z,100132.50
2023-05-14T02:17:39.527Z,100124.50
2023-05-14T02:20:08.434Z,100132.19
2023-05-14T02:22:36.394Z,100136.28
2023-05-14T02:25:04.719Z,100130.94
2023-05-14T02:27:32.970Z,100133.94
2023-05-14T02:30:03.706Z,100121.63
2023-05-14T02:32:31.846Z,100135.31
2023-05-14T02:34:59.905Z,100126.91
2023-05-14T02:37:28.010Z,100122.00
2023-05-14T02:39:56.205Z,100123.66
2023-05-14T02:42:25.694Z,100121.16
2023-05-14T02:44:54.040Z,100115.22
2023-05-14T02:47:23.381Z,100110.06
2023-05-14T02:49:51.524Z,100112.28
2023-05-14T02:52:19.860Z,100112.66
2023-05-14T02:54:48.234Z,100121.78
2023-05-14T02:57:16.209Z,100123.16
2023-05-14T02:59:44.263Z,100125.66
2023-05-14T03:02:12.838Z,100123.66
2023-05-14T03:04:42.912Z,100123.88
2023-05-14T03:07:11.145Z,100117.63
2023-05-14T03:09:39.948Z,100125.66
2023-05-14T03:12:09.605Z,100116.88
2023-05-14T03:14:37.861Z,100113.72
2023-05-14T03:17:06.288Z,100113.09
2023-05-14T03:19:34.556Z,100097.41
2023-05-14T03:22:04.905Z,100096.31
2023-05-14T03:24:34.602Z,100089.19
2023-05-14T03:27:04.087Z,100097.88
2023-05-14T03:29:32.368Z,100088.72
2023-05-14T03:32:00.900Z,100092.81
2023-05-14T03:34:29.163Z,100089.94
2023-05-14T03:36:57.527Z,100090.41
2023-05-14T03:39:27.344Z,100088.91
2023-05-14T03:41:57.520Z,100083.53
2023-05-14T03:44:25.883Z,100084.75
2023-05-14T03:46:54.478Z,100082.97
2023-05-14T03:49:24.474Z,100084.25
2023-05-14T03:51:52.682Z,100088.53
2023-05-14T03:54:20.799Z,100088.25
2023-05-14T03:56:50.454Z,100085.94
2023-05-14T03:59:18.831Z,100085.19
2023-05-14T04:01:49.329Z,100086.81
2023-05-14T04:04:17.468Z,100089.22
2023-05-14T04:06:45.609Z,100091.06
2023-05-14T04:09:14.059Z,100088.97
2023-05-14T04:11:41.849Z,100095.41
2023-05-14T04:14:11.660Z,100097.09
2023-05-14T04:16:40.359Z,100097.25
2023-05-14T04:19:08.940Z,100099.44
2023-05-14T04:21:37.141Z,100100.31
2023-05-14T04:24:05.438Z,100098.66
2023-05-14T04:26:33.377Z,100103.03
2023-05-14T04:29:03.737Z,100099.31
2023-05-14T04:31:33.194Z,100118.03
2023-05-14T04:34:01.137Z,100125.91
2023-05-14T04:36:29.636Z,100126.78
2023-05-14T04:38:57.496Z,100134.28
2023-05-14T04:41:25.538Z,100139.06
2023-05-14T04:43:56.880Z,100139.25
2023-05-14T04:46:25.409Z,100140.78
2023-05-14T04:48:55.078Z,100141.22
2023-05-14T04:51:24.499Z,100140.25
2023-05-14T04:53:52.483Z,100135.34
2023-05-14T04:56:21.715Z,100140.06
2023-05-14T04:58:50.416Z,100140.34
2023-05-14T05:01:18.872Z,100144.25
2023-05-14T05:03:47.645Z,100142.53
2023-05-14T05:06:17.160Z,100157.69
2023-05-14T05:08:45.513Z,100159.59
2023-05-14T05:11:13.912Z,100154.53
2023-05-14T05:13:42.498Z,100164.28
2023-05-14T05:16:10.961Z,100162.75
2023-05-14T05:18:39.452Z,100170.00
2023-05-14T05:21:08.582Z,100169.81
2023-05-14T05:23:38.324Z,100164.88
2023-05-14T05:26:08.472Z,100165.84
2023-05-14T05:28:38.979Z,100164.75
2023-05-14T05:31:07.566Z,100166.50
2023-05-14T05:33:36.190Z,100158.13
2023-05-14T05:36:04.229Z,100152.00
2023-05-14T05:38:32.599Z,100155.31
2023-05-14T05:41:01.781Z,100164.06
2023-05-14T05:43:30.184Z,100165.75
2023-05-14T05:45:58.514Z,100156.34
2023-05-14T05:48:26.389Z,100157.50
2023-05-14T05:50:54.575Z,100172.81
2023-05-14T05:53:22.740Z,100166.66
2023-05-14T05:55:51.806Z,100167.88
2023-05-14T05:58:21.074Z,100175.13
2023-05-14T06:00:49.088Z,100174.38
2023-05-14T06:03:17.492Z,100168.03
2023-05-14T06:05:46.987Z,100186.22
2023-05-14T06:08:15.254Z,100186.69
2023-05-14T06:10:43.217Z,100181.59
2023-05-14T06:13:11.680Z,100187.78
2023-05-14T06:15:41.019Z,100193.84
2023-05-14T06:18:09.233Z,100193.41
2023-05-14T06:20:37.326Z,100198.78
2023-05-14T06:23:06.071Z,100195.19
2023-05-14T06:25:34.378Z,100197.50
2023-05-14T06:28:02.494Z,100192.44
2023-05-14T06:30:30.907Z,100195.88
2023-05-14T06:33:00.865Z,100191.03
2023-05-14T06:35:28.981Z,100193.72
2023-05-14T06:37:57.073Z,100188.78
2023-05-14T06:40:25.402Z,100189.03
2023-05-14T06:42:53.728Z,100187.66
2023-05-14T06:45:22.092Z,100182.88
2023-05-14T06:47:50.948Z,100184.75
2023-05-14T06:50:20.471Z,100185.50
2023-05-14T06:52:48.476Z,100183.28
2023-05-14T06:55:16.939Z,100180.19
2023-05-14T06:57:44.990Z,100183.28
2023-05-14T07:00:14.385Z,100183.94
2023-05-14T07:02:42.404Z,100187.84
2023-05-14T07:05:12.026Z,100184.47
2023-05-14T07:07:41.478Z,100187.56
2023-05-14T07:10:09.505Z,100185.88
2023-05-14T07:12:37.415Z,100186.16
2023-05-14T07:15:06.280Z,100189.50
2023-05-14T07:17:33.958Z,100174.28
2023-05-14T07:20:01.860Z,100177.94
2023-05-14T07:22:29.899Z,100177.19
2023-05-14T07:24:59.211Z,100177.34
2023-05-14T07:27:26.989Z,100171.09
2023-05-14T07:29:54.756Z,100171.22
2023-05-14T07:32:22.548Z,100166.59
2023-05-14T07:34:50.177Z,100168.59
2023-05-14T07:37:18.207Z,100165.63
2023-05-14T07:39:45.919Z,100167.09
2023-05-14T07:42:24.662Z,100161.50
2023-05-14T07:45:00.212Z,100163.34
2023-05-14T07:47:28.489Z,100162.34
2023-05-14T07:49:57.488Z,100157.59
2023-05-14T07:52:25.495Z,100157.97
2023-05-14T07:54:53.567Z,100154.66
2023-05-14T07:57:23.218Z,100153.50
2023-05-14T07:59:51.343Z,100150.44
2023-05-14T08:02:19.186Z,100144.09
2023-05-14T08:04:47.335Z,100144.38
2023-05-14T08:07:15.912Z,100141.81
2023-05-14T08:09:44.416Z,100149.56
2023-05-14T08:12:12.226Z,100141.00
2023-05-14T08:14:41.251Z,100138.88
2023-05-14T08:17:09.069Z,100144.53
2023-05-14T08:19:36.904Z,100140.66
2023-05-14T08:22:06.173Z,100147.34
2023-05-14T08:24:34.139Z,100139.44
2023-05-14T08:27:02.376Z,100137.88
2023-05-14T08:29:29.925Z,100139.19
2023-05-14T08:32:05.737Z,100133.88
2023-05-14T08:34:40.408Z,100139.50
2023-05-14T08:37:09.479Z,100141.59
2023-05-14T08:39:37.114Z,100129.50
2023-05-14T08:42:07.393Z,100134.44
2023-05-14T08:44:40.037Z,100125.31
2023-05-14T08:47:09.364Z,100124.97
2023-05-14T08:49:41.769Z,100113.69
2023-05-14T08:52:10.054Z,100117.13
2023-05-14T08:54:38.362Z,100105.91
2023-05-14T08:57:07.551Z,100108.09
2023-05-14T08:59:35.349Z,100110.03
2023-05-14T09:02:05.098Z,100111.09
2023-05-14T09:04:35.969Z,100091.84
2023-05-14T09:07:04.191Z,100099.69
2023-05-14T09:09:32.179Z,100104.31
2023-05-14T09:11:59.872Z,100099.00
2023-05-14T09:14:27.812Z,100094.44
2023-05-14T09:16:56.976Z,100086.56
2023-05-14T09:19:25.476Z,100094.03
2023-05-14T09:21:57.513Z,100093.22
2023-05-14T09:24:26.250Z,100090.31
2023-05-14T09:26:57.767Z,100076.31
2023-05-14T09:29:28.274Z,100083.00
2023-05-14T09:31:56.717Z,100073.66
2023-05-14T09:34:25.116Z,100076.19
2023-05-14T09:36:58.667Z,100081.13
2023-05-14T09:39:27.283Z,100079.56
2023-05-14T09:41:55.940Z,100080.69
2023-05-14T09:44:24.187Z,100081.75
2023-05-14T09:46:52.658Z,100083.50
2023-05-14T09:49:20.969Z,100076.25
2023-05-14T09:51:50.379Z,100079.06
2023-05-14T09:54:21.020Z,100084.81
2023-05-14T09:56:48.727Z,100086.34
2023-05-14T09:59:16.703Z,100089.38
2023-05-14T10:01:44.927Z,100083.38
2023-05-14T10:04:14.111Z,100073.47
2023-05-14T10:06:45.432Z,100078.00
2023-05-14T10:09:14.092Z,100083.50
2023-05-14T10:11:46.345Z,100074.44
2023-05-14T10:14:21.091Z,100077.56
2023-05-14T10:16:50.582Z,100076.56
2023-05-14T10:19:19.671Z,100073.88
2023-05-14T10:21:50.188Z,100067.94
2023-05-14T10:24:19.237Z,100071.75
2023-05-14T10:26:49.599Z,100069.53
2023-05-14T10:29:18.042Z,100067.31
2023-05-14T10:31:49.933Z,100068.97
2023-05-14T10:34:34.901Z,100071.00
2023-05-14T10:37:04.797Z,100074.06
2023-05-14T10:39:42.682Z,100076.03
2023-05-14T10:42:14.245Z,100074.38
2023-05-14T10:44:56.208Z,100075.84
2023-05-14T10:47:24.623Z,100068.50
2023-05-14T10:49:55.382Z,100064.28
2023-05-14T10:52:25.313Z,100065.97
2023-05-14T10:54:54.600Z,100068.09
2023-05-14T10:57:26.221Z,100060.41
2023-05-14T10:59:55.249Z,100058.28
2023-05-14T11:02:24.755Z,100059.91
2023-05-14T11:05:03.872Z,100064.50
2023-05-14T11:07:33.287Z,100056.72
2023-05-14T11:10:03.021Z,100056.97
2023-05-14T11:12:32.873Z,100063.19
2023-05-14T11:15:02.384Z,100058.03
2023-05-14T11:17:31.518Z,100057.06
2023-05-14T11:20:00.449Z,100054.41
2023-05-14T11:22:28.781Z,100051.84
2023-05-14T11:24:58.988Z,100052.31
2023-05-14T11:27:27.097Z,100049.66
2023-05-14T11:29:58.327Z,100045.13
2023-05-14T11:32:27.304Z,100037.38
2023-05-14T11:34:56.132Z,100037.88
2023-05-14T11:37:24.835Z,100046.59
2023-05-14T11:39:55.177Z,100044.00
2023-05-14T11:42:24.075Z,100040.28
2023-05-14T11:44:55.926Z,100037.00
2023-05-14T11:47:25.961Z,100036.50
2023-05-14T11:49:54.722Z,100026.72
2023-05-14T11:52:23.234Z,100032.41
2023-05-14T11:54:51.453Z,100019.63
2023-05-14T11:57:21.090Z,100025.84
2023-05-14T11:59:50.753Z,100018.94
2023-05-14T12:02:20.035Z,100028.31
2023-05-14T12:04:53.322Z,100021.84
2023-05-14T12:07:21.426Z,100021.16
2023-05-14T12:09:50.411Z,100016.53
2023-05-14T12:12:20.173Z,100014.75
2023-05-14T12:14:50.651Z,100016.34
2023-05-14T12:17:20.487Z,100011.06
2023-05-14T12:19:49.156Z,100008.63
2023-05-14T12:22:19.267Z,100010.63
2023-05-14T12:24:54.583Z,100007.75
2023-05-14T12:27:23.802Z,100004.88
2023-05-14T12:29:53.425Z,100001.38
2023-05-14T12:32:21.110Z,99997.34
2023-05-14T12:34:49.281Z,99997.78
2023-05-14T12:37:19.309Z,99993.25
2023-05-14T12:39:47.110Z,99989.38
2023-05-14T12:42:16.661Z,99982.03
2023-05-14T12:44:47.216Z,99974.13
2023-05-14T12:47:15.174Z,99980.06
2023-05-14T12:49:43.356Z,99976.63
2023-05-14T12:54:43.685Z,99974.25
2023-05-14T12:57:11.749Z,99970.50
2023-05-14T12:59:39.795Z,99974.47
2023-05-14T13:02:08.000Z,99971.25
2023-05-14T13:04:36.420Z,99964.16
2023-05-14T13:07:04.635Z,99962.84
2023-05-14T13:09:32.563Z,99952.47
2023-05-14T13:12:03.766Z,99953.13
2023-05-14T13:14:32.229Z,99958.69
2023-05-14T13:17:00.854Z,99958.81
2023-05-14T13:19:29.123Z,99963.63
2023-05-14T13:22:01.234Z,99961.13
2023-05-14T13:24:30.568Z,99960.91
2023-05-14T13:26:58.255Z,99940.31
2023-05-14T13:29:29.571Z,99940.88
2023-05-14T13:31:57.632Z,99951.63
2023-05-14T13:34:25.398Z,99944.25
2023-05-14T13:36:53.258Z,99944.59
2023-05-14T13:39:23.234Z,99945.06
2023-05-14T13:41:51.700Z,99935.69
2023-05-14T13:44:19.368Z,99910.81
2023-05-14T13:46:48.686Z,99902.28
2023-05-14T13:49:17.426Z,99900.47
2023-05-14T13:51:45.430Z,99891.00
2023-05-14T13:54:13.416Z,99898.97
2023-05-14T13:56:41.287Z,99894.56
2023-05-14T13:59:09.354Z,99885.88
2023-05-14T14:01:37.427Z,99891.28
2023-05-14T14:04:06.512Z,99890.34
2023-05-14T14:06:34.263Z,99881.88
2023-05-14T14:09:02.375Z,99879.09
2023-05-14T14:11:30.124Z,99863.03
2023-05-14T14:13:57.781Z,99874.06
2023-05-14T14:16:25.626Z,99873.69
2023-05-14T14:18:53.495Z,99875.97
2023-05-14T14:21:24.707Z,99879.22
2023-05-14T14:23:52.347Z,99865.09
2023-05-14T14:26:19.999Z,99859.50
2023-05-14T14:28:48.072Z,99864.91
2023-05-14T14:31:17.334Z,99859.13
2023-05-14T14:33:45.001Z,99856.28
2023-05-14T14:36:12.564Z,99859.25
2023-05-14T14:38:41.447Z,99842.00
2023-05-14T14:41:10.187Z,99843.44
2023-05-14T14:43:38.752Z,99842.09
2023-05-14T14:46:11.183Z,99834.34
2023-05-14T14:48:39.029Z,99826.63
2023-05-14T14:51:07.551Z,99833.81
2023-05-14T14:53:35.817Z,99839.84
2023-05-14T14:56:05.188Z,99832.25
2023-05-14T14:58:32.974Z,99833.59
2023-05-14T15:01:03.584Z,99830.94
2023-05-14T15:03:31.594Z,99823.75
2023-05-14T15:06:00.707Z,99823.75
2023-05-14T15:08:29.250Z,99817.00
2023-05-14T15:10:57.495Z,99814.91
2023-05-14T15:13:27.209Z,99812.91
2023-05-14T15:15:54.999Z,99815.13
2023-05-14T15:18:22.562Z,99815.28
2023-05-14T15:20:50.840Z,99809.81
2023-05-14T15:23:18.551Z,99806.81
2023-05-14T15:25:46.684Z,99821.28
2023-05-14T15:28:15.293Z,99822.06
2023-05-14T15:30:44.336Z,99814.66
2023-05-14T15:33:12.620Z,99815.91
2023-05-14T15:35:40.718Z,99814.41
2023-05-14T15:38:08.473Z,99800.56
2023-05-14T15:40:36.313Z,99787.28
2023-05-14T15:43:05.350Z,99796.84
2023-05-14T15:45:33.162Z,99793.97
2023-05-14T15:48:02.286Z,99795.31
2023-05-14T15:50:30.201Z,99796.78
2023-05-14T15:52:58.412Z,99786.00
2023-05-14T15:55:26.222Z,99786.78
2023-05-14T15:57:54.156Z,99776.75
2023-05-14T16:00:23.010Z,99786.50
2023-05-14T16:02:51.387Z,99787.31
2023-05-14T16:05:20.962Z,99784.56
2023-05-14T16:07:48.868Z,99775.25
2023-05-14T16:10:16.887Z,99777.22
2023-05-14T16:12:44.595Z,99785.56
2023-05-14T16:15:13.042Z,99763.50
2023-05-14T16:17:41.041Z,99778.09
2023-05-14T16:20:09.603Z,99774.91
2023-05-14T16:22:38.896Z,99772.88
2023-05-14T16:25:06.916Z,99769.00
2023-05-14T16:27:35.417Z,99771.25
2023-05-14T16:30:04.550Z,99755.81
2023-05-14T16:32:32.366Z,99773.47
2023-05-14T16:35:01.904Z,99768.78
2023-05-14T16:37:29.591Z,99766.56
2023-05-14T16:39:59.018Z,99780.16
2023-05-14T16:42:26.839Z,99768.09
2023-05-14T16:44:54.578Z,99766.91
2023-05-14T16:47:22.453Z,99774.44
2023-05-14T16:49:50.324Z,99768.19
2023-05-14T16:52:17.964Z,99780.09
2023-05-14T16:54:45.842Z,99779.31
2023-05-14T16:57:14.851Z,99784.56
2023-05-14T16:59:42.474Z,99789.50
2023-05-14T17:02:10.580Z,99784.75
2023-05-14T17:04:42.295Z,99792.97
2023-05-14T17:07:10.335Z,99785.53
2023-05-14T17:09:38.097Z,99780.88
2023-05-14T17:12:05.752Z,99785.72
2023-05-14T17:14:34.852Z,99785.19
2023-05-14T17:17:02.556Z,99782.69
2023-05-14T17:19:30.210Z,99781.53
2023-05-14T17:21:58.081Z,99780.38
2023-05-14T17:24:26.467Z,99773.44
2023-05-14T17:26:54.848Z,99776.53
2023-05-14T17:29:22.859Z,99775.41
2023-05-14T17:31:52.357Z,99777.41
2023-05-14T17:34:20.035Z,99773.81
2023-05-14T17:36:47.760Z,99781.19
2023-05-14T17:39:16.032Z,99773.78
2023-05-14T17:41:44.291Z,99784.81
2023-05-14T17:44:13.054Z,99785.97
2023-05-14T17:46:41.814Z,99780.41
2023-05-14T17:49:11.898Z,99789.44
2023-05-14T17:51:39.642Z,99785.16
2023-05-14T17:54:07.301Z,99792.72
2023-05-14T17:56:34.931Z,99792.91
2023-05-14T17:59:02.873Z,99793.19
2023-05-14T18:01:31.022Z,99787.63
2023-05-14T18:03:59.750Z,99790.94
2023-05-14T18:06:32.025Z,99794.53
2023-05-14T18:09:01.206Z,99793.03
2023-05-14T18:11:33.974Z,99796.94
2023-05-14T18:14:02.672Z,99798.00
2023-05-14T18:16:34.166Z,99798.84
2023-05-14T18:19:01.896Z,99800.91
2023-05-14T18:21:31.681Z,99800.81
2023-05-14T18:23:59.305Z,99802.44
2023-05-14T18:26:34.252Z,99802.53
2023-05-14T18:29:02.333Z,99799.91
2023-05-14T18:31:30.698Z,99801.66
2023-05-14T18:33:58.424Z,99815.53
2023-05-14T18:36:26.609Z,99818.75
2023-05-14T18:38:56.905Z,99819.06
2023-05-14T18:41:28.491Z,99823.00
2023-05-14T18:43:58.071Z,99821.75
2023-05-14T18:46:28.642Z,99826.38
2023-05-14T18:48:56.867Z,99824.38
2023-05-14T18:51:27.256Z,99831.44
2023-05-14T18:53:56.955Z,99823.97
2023-05-14T18:56:25.509Z,99831.00
2023-05-14T18:58:56.275Z,99832.19
2023-05-14T19:01:25.542Z,99841.97
2023-05-14T19:03:53.909Z,99846.06
2023-05-14T19:06:23.427Z,99846.28
2023-05-14T19:08:52.028Z,99853.41
2023-05-14T19:11:22.174Z,99851.28
2023-05-14T19:13:50.570Z,99854.78
2023-05-14T19:16:21.707Z,99857.50
2023-05-14T19:18:50.450Z,99865.31
2023-05-14T19:21:18.635Z,99865.03
2023-05-14T19:23:47.376Z,99870.50
2023-05-14T19:26:15.462Z,99864.88
2023-05-14T19:28:45.016Z,99862.25
2023-05-14T19:31:16.033Z,99863.06
2023-05-14T19:33:44.080Z,99862.00
2023-05-14T19:36:13.669Z,99862.97
2023-05-14T19:38:41.724Z,99861.97
2023-05-14T19:41:09.740Z,99864.63
2023-05-14T19:43:37.769Z,99862.84
2023-05-14T19:46:08.149Z,99858.84
2023-05-14T19:48:37.203Z,99858.56
2023-05-14T19:51:05.070Z,99855.91
2023-05-14T19:53:35.944Z,99861.88
2023-05-14T19:56:05.304Z,99855.94
2023-05-14T19:58:34.073Z,99861.47
2023-05-14T20:01:02.110Z,99861.72
2023-05-14T20:03:31.436Z,99853.31
2023-05-14T20:05:59.334Z,99848.53
2023-05-14T20:08:29.338Z,99857.47
2023-05-14T20:10:58.492Z,99854.03
2023-05-14T20:13:26.773Z,99856.09
2023-05-14T20:15:55.382Z,99857.88
2023-05-14T20:18:23.800Z,99856.50
2023-05-14T20:20:53.323Z,99854.72
2023-05-14T20:23:21.972Z,99849.91
2023-05-14T20:25:50.113Z,99848.38
2023-05-14T20:28:18.117Z,99854.97
2023-05-14T20:30:46.570Z,99857.88
2023-05-14T20:33:15.286Z,99850.19
2023-05-14T20:35:44.240Z,99852.66
2023-05-14T20:38:14.350Z,99853.84
2023-05-14T20:40:42.454Z,99851.22
2023-05-14T20:43:10.449Z,99855.09
2023-05-14T20:45:39.384Z,99855.88
2023-05-14T20:48:10.140Z,99853.91
2023-05-14T20:50:38.659Z,99850.50
2023-05-14T20:53:06.688Z,99848.78
2023-05-14T20:55:36.133Z,99839.69
2023-05-14T20:58:04.367Z,99843.50
2023-05-14T21:00:32.647Z,99843.75
2023-05-14T21:03:00.722Z,99839.88
2023-05-14T21:05:30.480Z,99839.66
2023-05-14T21:07:58.392Z,99838.66
2023-05-14T21:10:26.427Z,99836.28
2023-05-14T21:12:55.830Z,99830.09
2023-05-14T21:15:23.730Z,99827.81
2023-05-14T21:17:52.185Z,99833.91
2023-05-14T21:20:20.074Z,99832.75
2023-05-14T21:22:47.975Z,99827.59
2023-05-14T21:25:16.187Z,99822.94
2023-05-14T21:27:47.952Z,99823.72
2023-05-14T21:30:17.585Z,99825.66
2023-05-14T21:32:45.566Z,99829.59
2023-05-14T21:35:15.307Z,99822.44
2023-05-14T21:37:43.704Z,99816.69
2023-05-14T21:40:12.507Z,99812.47
2023-05-14T21:42:41.109Z,99814.47
2023-05-14T21:45:09.265Z,99808.16
2023-05-14T21:47:38.940Z,99801.75
2023-05-14T21:50:07.793Z,99796.97
2023-05-14T21:52:35.749Z,99799.25
2023-05-14T21:55:04.075Z,99797.53
2023-05-14T21:57:34.282Z,99797.44
2023-05-14T22:00:02.823Z,99792.69
2023-05-14T22:02:32.543Z,99793.88
2023-05-14T22:05:01.657Z,99789.78
2023-05-14T22:07:29.850Z,99790.56
2023-05-14T22:09:58.022Z,99783.63
2023-05-14T22:12:26.212Z,99790.13
2023-05-14T22:14:53.917Z,99780.88
2023-05-14T22:17:21.983Z,99779.19
2023-05-14T22:19:49.674Z,99782.84
2023-05-14T22:22:20.443Z,99777.25
2023-05-14T22:24:48.108Z,99775.59
2023-05-14T22:27:16.038Z,99776.50
2023-05-14T22:29:43.939Z,99779.22
2023-05-14T22:32:11.960Z,99767.69
2023-05-14T22:34:41.979Z,99773.50
2023-05-14T22:37:09.980Z,99765.22
2023-05-14T22:39:39.790Z,99765.50
2023-05-14T22:42:07.782Z,99764.69
2023-05-14T22:44:37.113Z,99766.34
2023-05-14T22:47:05.672Z,99761.56
2023-05-14T22:49:33.822Z,99765.31
2023-05-14T22:52:01.937Z,99763.59
2023-05-14T22:54:33.020Z,99758.00
2023-05-14T22:57:02.801Z,99749.59
2023-05-14T22:59:30.634Z,99747.69
2023-05-14T23:01:58.765Z,99752.53
2023-05-14T23:04:29.419Z,99743.44
2023-05-14T23:06:57.243Z,99743.94
2023-05-14T23:09:25.294Z,99745.91
2023-05-14T23:11:53.201Z,99740.34
2023-05-14T23:14:22.914Z,99737.38
2023-05-14T23:16:50.914Z,99739.16
2023-05-14T23:19:19.219Z,99744.25
2023-05-14T23:21:47.450Z,99732.94
2023-05-14T23:24:15.266Z,99727.47
2023-05-14T23:26:43.293Z,99725.44
2023-05-14T23:29:11.095Z,99722.41
2023-05-14T23:31:41.252Z,99726.50
2023-05-14T23:34:09.250Z,99726.88
2023-05-14T23:36:37.419Z,99731.25
2023-05-14T23:39:05.515Z,99728.19
2023-05-14T23:41:33.940Z,99731.13
2023-05-14T23:44:01.961Z,99726.41
2023-05-14T23:46:30.137Z,99722.88
2023-05-14T23:48:59.638Z,99714.44
2023-05-14T23:51:27.875Z,99707.94
2023-05-14T23:53:58.787Z,99709.72
2023-05-14T23:56:27.545Z,99703.81
2023-05-14T23:58:55.726Z,99709.72
